sensor_id;sensor_type;location;lat;lon;timestamp;temperature;humidity
19050;DHT22;9657;45.940;12.840;2023-05-17T00:00:32;18.30;69.50
19050;DHT22;9657;45.940;12.840;2023-05-17T00:02:59;18.30;69.40
19050;DHT22;9657;45.940;12.840;2023-05-17T00:05:26;18.30;69.40
19050;DHT22;9657;45.940;12.840;2023-05-17T00:07:53;18.30;69.40
19050;DHT22;9657;45.940;12.840;2023-05-17T00:10:21;18.30;69.40
19050;DHT22;9657;45.940;12.840;2023-05-17T00:12:48;18.30;69.40
19050;DHT22;9657;45.940;12.840;2023-05-17T00:15:15;18.30;69.40
19050;DHT22;9657;45.940;12.840;2023-05-17T00:17:42;18.30;69.30
19050;DHT22;9657;45.940;12.840;2023-05-17T00:20:10;18.30;69.30
19050;DHT22;9657;45.940;12.840;2023-05-17T00:22:37;18.30;69.30
19050;DHT22;9657;45.940;12.840;2023-05-17T00:25:06;18.30;69.30
19050;DHT22;9657;45.940;12.840;2023-05-17T00:27:34;18.30;69.30
19050;DHT22;9657;45.940;12.840;2023-05-17T00:30:01;18.30;69.30
19050;DHT22;9657;45.940;12.840;2023-05-17T00:32:28;18.30;69.30
19050;DHT22;9657;45.940;12.840;2023-05-17T00:34:55;18.30;69.30
19050;DHT22;9657;45.940;12.840;2023-05-17T00:37:22;18.20;69.20
19050;DHT22;9657;45.940;12.840;2023-05-17T00:39:49;18.30;69.30
19050;DHT22;9657;45.940;12.840;2023-05-17T00:42:17;18.30;69.30
19050;DHT22;9657;45.940;12.840;2023-05-17T00:44:46;18.30;69.30
19050;DHT22;9657;45.940;12.840;2023-05-17T00:47:13;18.20;69.10
19050;DHT22;9657;45.940;12.840;2023-05-17T00:49:40;18.30;69.30
19050;DHT22;9657;45.940;12.840;2023-05-17T00:52:07;18.30;69.30
19050;DHT22;9657;45.940;12.840;2023-05-17T00:54:34;18.30;69.30
19050;DHT22;9657;45.940;12.840;2023-05-17T00:57:01;18.20;69.20
19050;DHT22;9657;45.940;12.840;2023-05-17T00:59:29;18.20;69.20
19050;DHT22;9657;45.940;12.840;2023-05-17T01:04:33;18.20;69.10
19050;DHT22;9657;45.940;12.840;2023-05-17T01:07:01;18.20;69.10
19050;DHT22;9657;45.940;12.840;2023-05-17T01:09:28;18.20;69.10
19050;DHT22;9657;45.940;12.840;2023-05-17T01:12:03;18.20;69.20
19050;DHT22;9657;45.940;12.840;2023-05-17T01:14:40;18.20;69.20
19050;DHT22;9657;45.940;12.840;2023-05-17T01:17:15;18.20;69.10
19050;DHT22;9657;45.940;12.840;2023-05-17T01:20:04;18.20;69.10
19050;DHT22;9657;45.940;12.840;2023-05-17T01:22:42;18.20;69.10
19050;DHT22;9657;45.940;12.840;2023-05-17T01:25:34;18.20;69.10
19050;DHT22;9657;45.940;12.840;2023-05-17T01:28:04;18.20;69.20
19050;DHT22;9657;45.940;12.840;2023-05-17T01:30:32;18.20;69.20
19050;DHT22;9657;45.940;12.840;2023-05-17T01:33:01;18.20;69.20
19050;DHT22;9657;45.940;12.840;2023-05-17T01:35:29;18.20;69.10
19050;DHT22;9657;45.940;12.840;2023-05-17T01:37:56;18.20;69.10
19050;DHT22;9657;45.940;12.840;2023-05-17T01:40:24;18.20;69.20
19050;DHT22;9657;45.940;12.840;2023-05-17T01:42:55;18.20;69.20
19050;DHT22;9657;45.940;12.840;2023-05-17T01:45:29;18.20;69.20
19050;DHT22;9657;45.940;12.840;2023-05-17T01:48:07;18.20;69.20
19050;DHT22;9657;45.940;12.840;2023-05-17T01:50:37;18.20;69.20
19050;DHT22;9657;45.940;12.840;2023-05-17T01:53:09;18.20;69.20
19050;DHT22;9657;45.940;12.840;2023-05-17T01:55:41;18.20;69.20
19050;DHT22;9657;45.940;12.840;2023-05-17T01:58:10;18.20;69.20
19050;DHT22;9657;45.940;12.840;2023-05-17T02:00:41;18.20;69.20
19050;DHT22;9657;45.940;12.840;2023-05-17T02:03:12;18.20;69.30
19050;DHT22;9657;45.940;12.840;2023-05-17T02:05:39;18.20;69.20
19050;DHT22;9657;45.940;12.840;2023-05-17T02:08:06;18.20;69.20
19050;DHT22;9657;45.940;12.840;2023-05-17T02:10:33;18.20;69.30
19050;DHT22;9657;45.940;12.840;2023-05-17T02:13:00;18.10;69.10
19050;DHT22;9657;45.940;12.840;2023-05-17T02:15:27;18.20;70.00
19050;DHT22;9657;45.940;12.840;2023-05-17T02:17:55;18.20;69.20
19050;DHT22;9657;45.940;12.840;2023-05-17T02:20:23;18.20;69.20
19050;DHT22;9657;45.940;12.840;2023-05-17T02:22:50;18.20;69.20
19050;DHT22;9657;45.940;12.840;2023-05-17T02:25:17;18.20;69.30
19050;DHT22;9657;45.940;12.840;2023-05-17T02:27:44;18.20;69.20
19050;DHT22;9657;45.940;12.840;2023-05-17T02:30:11;18.10;69.20
19050;DHT22;9657;45.940;12.840;2023-05-17T02:32:41;18.20;69.30
19050;DHT22;9657;45.940;12.840;2023-05-17T02:35:10;18.20;69.20
19050;DHT22;9657;45.940;12.840;2023-05-17T02:37:37;18.20;69.20
19050;DHT22;9657;45.940;12.840;2023-05-17T02:40:05;18.10;69.20
19050;DHT22;9657;45.940;12.840;2023-05-17T02:42:34;18.10;69.10
19050;DHT22;9657;45.940;12.840;2023-05-17T02:45:01;18.20;69.30
19050;DHT22;9657;45.940;12.840;2023-05-17T02:47:28;18.10;69.20
19050;DHT22;9657;45.940;12.840;2023-05-17T02:49:55;18.10;69.20
19050;DHT22;9657;45.940;12.840;2023-05-17T02:52:24;18.10;69.20
19050;DHT22;9657;45.940;12.840;2023-05-17T02:54:51;18.10;69.20
19050;DHT22;9657;45.940;12.840;2023-05-17T02:57:18;18.10;69.30
19050;DHT22;9657;45.940;12.840;2023-05-17T02:59:45;18.10;69.30
19050;DHT22;9657;45.940;12.840;2023-05-17T03:02:12;18.10;69.20
19050;DHT22;9657;45.940;12.840;2023-05-17T03:04:39;18.10;69.20
19050;DHT22;9657;45.940;12.840;2023-05-17T03:07:06;18.10;69.30
19050;DHT22;9657;45.940;12.840;2023-05-17T03:09:35;18.10;69.30
19050;DHT22;9657;45.940;12.840;2023-05-17T03:12:02;18.10;69.30
19050;DHT22;9657;45.940;12.840;2023-05-17T03:14:29;18.10;69.30
19050;DHT22;9657;45.940;12.840;2023-05-17T03:16:56;18.10;69.30
19050;DHT22;9657;45.940;12.840;2023-05-17T03:19:23;18.10;69.30
19050;DHT22;9657;45.940;12.840;2023-05-17T03:21:50;18.10;69.30
19050;DHT22;9657;45.940;12.840;2023-05-17T03:24:17;18.10;69.30
19050;DHT22;9657;45.940;12.840;2023-05-17T03:26:46;18.10;69.30
19050;DHT22;9657;45.940;12.840;2023-05-17T03:29:13;18.10;69.30
19050;DHT22;9657;45.940;12.840;2023-05-17T03:31:40;18.10;69.30
19050;DHT22;9657;45.940;12.840;2023-05-17T03:34:07;18.10;69.30
19050;DHT22;9657;45.940;12.840;2023-05-17T03:36:34;18.10;69.30
19050;DHT22;9657;45.940;12.840;2023-05-17T03:39:01;18.10;69.30
19050;DHT22;9657;45.940;12.840;2023-05-17T03:41:28;18.10;69.30
19050;DHT22;9657;45.940;12.840;2023-05-17T03:43:56;18.10;69.40
19050;DHT22;9657;45.940;12.840;2023-05-17T03:46:23;18.10;69.40
19050;DHT22;9657;45.940;12.840;2023-05-17T03:48:50;18.10;69.40
19050;DHT22;9657;45.940;12.840;2023-05-17T03:51:17;18.10;69.40
19050;DHT22;9657;45.940;12.840;2023-05-17T03:53:44;18.10;69.40
19050;DHT22;9657;45.940;12.840;2023-05-17T03:56:12;18.10;69.40
19050;DHT22;9657;45.940;12.840;2023-05-17T03:58:40;18.10;69.40
19050;DHT22;9657;45.940;12.840;2023-05-17T04:01:08;18.10;69.40
19050;DHT22;9657;45.940;12.840;2023-05-17T04:03:36;18.10;70.20
19050;DHT22;9657;45.940;12.840;2023-05-17T04:06:05;18.10;69.40
19050;DHT22;9657;45.940;12.840;2023-05-17T04:08:32;18.10;69.40
19050;DHT22;9657;45.940;12.840;2023-05-17T04:11:00;18.10;69.50
19050;DHT22;9657;45.940;12.840;2023-05-17T04:13:34;18.10;69.40
19050;DHT22;9657;45.940;12.840;2023-05-17T04:16:02;18.10;69.40
19050;DHT22;9657;45.940;12.840;2023-05-17T04:18:33;18.10;69.40
19050;DHT22;9657;45.940;12.840;2023-05-17T04:21:00;18.10;69.40
19050;DHT22;9657;45.940;12.840;2023-05-17T04:23:28;18.10;69.50
19050;DHT22;9657;45.940;12.840;2023-05-17T04:25:55;18.10;69.40
19050;DHT22;9657;45.940;12.840;2023-05-17T04:28:22;18.10;69.50
19050;DHT22;9657;45.940;12.840;2023-05-17T04:30:50;18.10;69.50
19050;DHT22;9657;45.940;12.840;2023-05-17T04:33:18;18.10;69.40
19050;DHT22;9657;45.940;12.840;2023-05-17T04:35:46;18.10;69.50
19050;DHT22;9657;45.940;12.840;2023-05-17T04:38:13;18.10;69.50
19050;DHT22;9657;45.940;12.840;2023-05-17T04:40:40;18.10;69.50
19050;DHT22;9657;45.940;12.840;2023-05-17T04:43:08;18.10;69.50
19050;DHT22;9657;45.940;12.840;2023-05-17T04:45:35;18.10;69.50
19050;DHT22;9657;45.940;12.840;2023-05-17T04:48:02;18.10;69.50
19050;DHT22;9657;45.940;12.840;2023-05-17T04:50:29;18.10;69.50
19050;DHT22;9657;45.940;12.840;2023-05-17T04:52:58;18.10;69.50
19050;DHT22;9657;45.940;12.840;2023-05-17T04:55:25;18.10;69.50
19050;DHT22;9657;45.940;12.840;2023-05-17T04:57:52;18.10;69.50
19050;DHT22;9657;45.940;12.840;2023-05-17T05:00:19;18.10;69.60
19050;DHT22;9657;45.940;12.840;2023-05-17T05:02:48;18.10;69.70
19050;DHT22;9657;45.940;12.840;2023-05-17T05:05:15;18.10;69.70
19050;DHT22;9657;45.940;12.840;2023-05-17T05:07:42;18.10;69.80
19050;DHT22;9657;45.940;12.840;2023-05-17T05:10:11;18.10;69.80
19050;DHT22;9657;45.940;12.840;2023-05-17T05:12:38;18.10;69.90
19050;DHT22;9657;45.940;12.840;2023-05-17T05:15:06;18.10;69.90
19050;DHT22;9657;45.940;12.840;2023-05-17T05:17:33;18.10;69.90
19050;DHT22;9657;45.940;12.840;2023-05-17T05:20:00;18.10;69.90
19050;DHT22;9657;45.940;12.840;2023-05-17T05:22:27;18.10;69.90
19050;DHT22;9657;45.940;12.840;2023-05-17T05:24:54;18.10;70.00
19050;DHT22;9657;45.940;12.840;2023-05-17T05:27:23;18.10;70.00
19050;DHT22;9657;45.940;12.840;2023-05-17T05:29:50;18.10;70.00
19050;DHT22;9657;45.940;12.840;2023-05-17T05:32:17;18.10;70.00
19050;DHT22;9657;45.940;12.840;2023-05-17T05:34:44;18.10;70.00
19050;DHT22;9657;45.940;12.840;2023-05-17T05:37:11;18.10;70.00
19050;DHT22;9657;45.940;12.840;2023-05-17T05:39:38;18.10;70.10
19050;DHT22;9657;45.940;12.840;2023-05-17T05:42:05;18.10;70.90
19050;DHT22;9657;45.940;12.840;2023-05-17T05:44:34;18.10;70.10
19050;DHT22;9657;45.940;12.840;2023-05-17T05:47:01;18.10;70.10
19050;DHT22;9657;45.940;12.840;2023-05-17T05:49:28;18.10;70.10
19050;DHT22;9657;45.940;12.840;2023-05-17T05:51:55;18.10;70.10
19050;DHT22;9657;45.940;12.840;2023-05-17T05:54:22;18.10;70.20
19050;DHT22;9657;45.940;12.840;2023-05-17T05:56:49;18.10;70.20
19050;DHT22;9657;45.940;12.840;2023-05-17T05:59:16;18.10;70.20
19050;DHT22;9657;45.940;12.840;2023-05-17T06:01:45;18.10;70.20
19050;DHT22;9657;45.940;12.840;2023-05-17T06:04:12;18.10;70.20
19050;DHT22;9657;45.940;12.840;2023-05-17T06:06:39;18.10;70.20
19050;DHT22;9657;45.940;12.840;2023-05-17T06:09:06;18.10;70.20
19050;DHT22;9657;45.940;12.840;2023-05-17T06:11:36;18.10;70.20
19050;DHT22;9657;45.940;12.840;2023-05-17T06:14:03;18.10;70.20
19050;DHT22;9657;45.940;12.840;2023-05-17T06:16:30;18.10;70.30
19050;DHT22;9657;45.940;12.840;2023-05-17T06:18:59;18.10;70.30
19050;DHT22;9657;45.940;12.840;2023-05-17T06:21:26;18.10;70.20
19050;DHT22;9657;45.940;12.840;2023-05-17T06:23:53;18.10;70.30
19050;DHT22;9657;45.940;12.840;2023-05-17T06:26:20;18.10;70.30
19050;DHT22;9657;45.940;12.840;2023-05-17T06:28:47;18.10;70.30
19050;DHT22;9657;45.940;12.840;2023-05-17T06:31:14;18.10;70.30
19050;DHT22;9657;45.940;12.840;2023-05-17T06:33:41;18.10;70.30
19050;DHT22;9657;45.940;12.840;2023-05-17T06:36:10;18.10;70.40
19050;DHT22;9657;45.940;12.840;2023-05-17T06:38:37;18.10;70.30
19050;DHT22;9657;45.940;12.840;2023-05-17T06:41:04;18.10;70.30
19050;DHT22;9657;45.940;12.840;2023-05-17T06:43:31;18.10;70.30
19050;DHT22;9657;45.940;12.840;2023-05-17T06:45:58;18.10;70.40
19050;DHT22;9657;45.940;12.840;2023-05-17T06:48:25;18.10;70.30
19050;DHT22;9657;45.940;12.840;2023-05-17T06:50:52;18.10;70.30
19050;DHT22;9657;45.940;12.840;2023-05-17T06:53:20;18.10;70.30
19050;DHT22;9657;45.940;12.840;2023-05-17T06:55:47;18.10;70.40
19050;DHT22;9657;45.940;12.840;2023-05-17T06:58:14;18.10;70.40
19050;DHT22;9657;45.940;12.840;2023-05-17T07:00:41;18.00;70.40
19050;DHT22;9657;45.940;12.840;2023-05-17T07:03:08;18.10;70.40
19050;DHT22;9657;45.940;12.840;2023-05-17T07:05:36;18.10;70.40
19050;DHT22;9657;45.940;12.840;2023-05-17T07:08:03;18.10;70.40
19050;DHT22;9657;45.940;12.840;2023-05-17T07:10:31;18.10;70.40
19050;DHT22;9657;45.940;12.840;2023-05-17T07:12:58;18.10;70.40
19050;DHT22;9657;45.940;12.840;2023-05-17T07:15:26;18.10;70.40
19050;DHT22;9657;45.940;12.840;2023-05-17T07:17:53;18.10;70.40
19050;DHT22;9657;45.940;12.840;2023-05-17T07:20:20;18.10;70.40
19050;DHT22;9657;45.940;12.840;2023-05-17T07:22:47;18.10;70.40
19050;DHT22;9657;45.940;12.840;2023-05-17T07:25:14;18.10;70.40
19050;DHT22;9657;45.940;12.840;2023-05-17T07:27:44;18.10;70.40
19050;DHT22;9657;45.940;12.840;2023-05-17T07:30:12;18.10;70.40
19050;DHT22;9657;45.940;12.840;2023-05-17T07:32:39;18.10;70.40
19050;DHT22;9657;45.940;12.840;2023-05-17T07:35:06;18.10;70.40
19050;DHT22;9657;45.940;12.840;2023-05-17T07:37:33;18.10;70.40
19050;DHT22;9657;45.940;12.840;2023-05-17T07:40:00;18.10;70.40
19050;DHT22;9657;45.940;12.840;2023-05-17T07:42:29;18.10;70.40
19050;DHT22;9657;45.940;12.840;2023-05-17T07:44:57;18.10;70.40
19050;DHT22;9657;45.940;12.840;2023-05-17T07:47:24;18.10;70.40
19050;DHT22;9657;45.940;12.840;2023-05-17T07:49:51;18.10;70.40
19050;DHT22;9657;45.940;12.840;2023-05-17T07:52:18;18.10;70.40
19050;DHT22;9657;45.940;12.840;2023-05-17T07:54:46;18.10;70.40
19050;DHT22;9657;45.940;12.840;2023-05-17T07:57:13;18.10;70.40
19050;DHT22;9657;45.940;12.840;2023-05-17T07:59:40;18.10;70.50
19050;DHT22;9657;45.940;12.840;2023-05-17T08:02:08;18.10;70.40
19050;DHT22;9657;45.940;12.840;2023-05-17T08:04:35;18.10;70.40
19050;DHT22;9657;45.940;12.840;2023-05-17T08:07:03;18.10;70.40
19050;DHT22;9657;45.940;12.840;2023-05-17T08:09:30;18.10;70.40
19050;DHT22;9657;45.940;12.840;2023-05-17T08:11:57;18.10;70.40
19050;DHT22;9657;45.940;12.840;2023-05-17T08:14:24;18.10;70.40
19050;DHT22;9657;45.940;12.840;2023-05-17T08:16:51;18.10;70.40
19050;DHT22;9657;45.940;12.840;2023-05-17T08:19:20;18.10;70.40
19050;DHT22;9657;45.940;12.840;2023-05-17T08:21:47;18.10;70.50
19050;DHT22;9657;45.940;12.840;2023-05-17T08:24:14;18.10;70.40
19050;DHT22;9657;45.940;12.840;2023-05-17T08:26:42;18.10;70.40
19050;DHT22;9657;45.940;12.840;2023-05-17T08:29:09;18.10;70.40
19050;DHT22;9657;45.940;12.840;2023-05-17T08:31:36;18.10;70.40
19050;DHT22;9657;45.940;12.840;2023-05-17T08:34:03;18.10;70.40
19050;DHT22;9657;45.940;12.840;2023-05-17T08:36:31;18.10;70.50
19050;DHT22;9657;45.940;12.840;2023-05-17T08:38:58;18.10;70.50
19050;DHT22;9657;45.940;12.840;2023-05-17T08:41:26;18.10;70.40
19050;DHT22;9657;45.940;12.840;2023-05-17T08:43:54;18.10;70.40
19050;DHT22;9657;45.940;12.840;2023-05-17T08:46:22;18.10;70.50
19050;DHT22;9657;45.940;12.840;2023-05-17T08:48:52;18.10;70.50
19050;DHT22;9657;45.940;12.840;2023-05-17T08:51:21;18.10;70.50
19050;DHT22;9657;45.940;12.840;2023-05-17T08:53:49;18.10;70.40
19050;DHT22;9657;45.940;12.840;2023-05-17T08:56:17;18.20;70.50
19050;DHT22;9657;45.940;12.840;2023-05-17T08:58:47;18.10;70.50
19050;DHT22;9657;45.940;12.840;2023-05-17T09:01:16;18.10;70.50
19050;DHT22;9657;45.940;12.840;2023-05-17T09:03:46;18.10;70.50
19050;DHT22;9657;45.940;12.840;2023-05-17T09:06:15;18.20;70.50
19050;DHT22;9657;45.940;12.840;2023-05-17T09:08:43;18.10;70.50
19050;DHT22;9657;45.940;12.840;2023-05-17T09:11:11;18.10;70.50
19050;DHT22;9657;45.940;12.840;2023-05-17T09:13:38;18.10;70.50
19050;DHT22;9657;45.940;12.840;2023-05-17T09:16:12;18.10;70.50
19050;DHT22;9657;45.940;12.840;2023-05-17T09:18:40;18.10;70.60
19050;DHT22;9657;45.940;12.840;2023-05-17T09:21:07;18.10;70.50
19050;DHT22;9657;45.940;12.840;2023-05-17T09:23:37;18.10;70.60
19050;DHT22;9657;45.940;12.840;2023-05-17T09:26:04;18.20;70.60
19050;DHT22;9657;45.940;12.840;2023-05-17T09:28:38;18.10;70.50
19050;DHT22;9657;45.940;12.840;2023-05-17T09:31:06;18.10;70.50
19050;DHT22;9657;45.940;12.840;2023-05-17T09:33:33;18.20;70.60
19050;DHT22;9657;45.940;12.840;2023-05-17T09:36:00;18.20;70.60
19050;DHT22;9657;45.940;12.840;2023-05-17T09:38:28;18.10;70.50
19050;DHT22;9657;45.940;12.840;2023-05-17T09:40:55;18.10;70.50
19050;DHT22;9657;45.940;12.840;2023-05-17T09:43:24;18.10;70.60
19050;DHT22;9657;45.940;12.840;2023-05-17T09:45:56;18.20;70.60
19050;DHT22;9657;45.940;12.840;2023-05-17T09:48:25;18.20;70.60
19050;DHT22;9657;45.940;12.840;2023-05-17T09:50:53;18.20;70.60
19050;DHT22;9657;45.940;12.840;2023-05-17T09:53:27;18.20;70.60
19050;DHT22;9657;45.940;12.840;2023-05-17T09:55:56;18.20;70.60
19050;DHT22;9657;45.940;12.840;2023-05-17T09:58:25;18.20;70.60
19050;DHT22;9657;45.940;12.840;2023-05-17T10:00:58;18.20;70.60
19050;DHT22;9657;45.940;12.840;2023-05-17T10:03:26;18.20;70.60
19050;DHT22;9657;45.940;12.840;2023-05-17T10:05:55;18.20;70.60
19050;DHT22;9657;45.940;12.840;2023-05-17T10:08:22;18.20;70.60
19050;DHT22;9657;45.940;12.840;2023-05-17T10:10:54;18.20;70.70
19050;DHT22;9657;45.940;12.840;2023-05-17T10:13:24;18.20;70.60
19050;DHT22;9657;45.940;12.840;2023-05-17T10:15:53;18.20;70.70
19050;DHT22;9657;45.940;12.840;2023-05-17T10:18:22;18.20;70.70
19050;DHT22;9657;45.940;12.840;2023-05-17T10:20:50;18.20;70.60
19050;DHT22;9657;45.940;12.840;2023-05-17T10:23:17;18.20;70.60
19050;DHT22;9657;45.940;12.840;2023-05-17T10:25:45;18.20;70.60
19050;DHT22;9657;45.940;12.840;2023-05-17T10:28:15;18.20;70.70
19050;DHT22;9657;45.940;12.840;2023-05-17T10:30:43;18.20;70.70
19050;DHT22;9657;45.940;12.840;2023-05-17T10:33:12;18.20;70.70
19050;DHT22;9657;45.940;12.840;2023-05-17T10:35:43;18.20;70.70
19050;DHT22;9657;45.940;12.840;2023-05-17T10:38:10;18.20;70.70
19050;DHT22;9657;45.940;12.840;2023-05-17T10:40:39;18.20;70.80
19050;DHT22;9657;45.940;12.840;2023-05-17T10:43:08;18.20;70.70
19050;DHT22;9657;45.940;12.840;2023-05-17T10:45:36;18.20;70.80
19050;DHT22;9657;45.940;12.840;2023-05-17T10:48:04;18.20;70.70
19050;DHT22;9657;45.940;12.840;2023-05-17T10:50:31;18.20;70.80
19050;DHT22;9657;45.940;12.840;2023-05-17T10:53:00;18.20;70.70
19050;DHT22;9657;45.940;12.840;2023-05-17T10:55:37;18.20;70.70
19050;DHT22;9657;45.940;12.840;2023-05-17T10:58:12;18.20;70.60
19050;DHT22;9657;45.940;12.840;2023-05-17T11:00:43;18.20;70.60
19050;DHT22;9657;45.940;12.840;2023-05-17T11:03:12;18.20;70.60
19050;DHT22;9657;45.940;12.840;2023-05-17T11:05:41;18.20;70.70
19050;DHT22;9657;45.940;12.840;2023-05-17T11:08:15;18.20;70.60
19050;DHT22;9657;45.940;12.840;2023-05-17T11:11:07;18.20;70.60
19050;DHT22;9657;45.940;12.840;2023-05-17T11:13:43;18.20;70.60
19050;DHT22;9657;45.940;12.840;2023-05-17T11:16:14;18.20;70.60
19050;DHT22;9657;45.940;12.840;2023-05-17T11:18:49;18.20;70.60
19050;DHT22;9657;45.940;12.840;2023-05-17T11:21:17;18.20;70.00
19050;DHT22;9657;45.940;12.840;2023-05-17T11:23:46;18.20;70.60
19050;DHT22;9657;45.940;12.840;2023-05-17T11:26:20;18.20;70.60
19050;DHT22;9657;45.940;12.840;2023-05-17T11:28:51;18.20;70.60
19050;DHT22;9657;45.940;12.840;2023-05-17T11:31:28;18.20;70.60
19050;DHT22;9657;45.940;12.840;2023-05-17T11:33:57;18.20;70.60
19050;DHT22;9657;45.940;12.840;2023-05-17T11:36:25;18.20;70.60
19050;DHT22;9657;45.940;12.840;2023-05-17T11:39:11;18.20;70.50
19050;DHT22;9657;45.940;12.840;2023-05-17T11:41:39;18.20;70.50
19050;DHT22;9657;45.940;12.840;2023-05-17T11:44:13;18.20;70.60
19050;DHT22;9657;45.940;12.840;2023-05-17T11:46:42;18.20;70.60
19050;DHT22;9657;45.940;12.840;2023-05-17T11:49:09;18.20;70.50
19050;DHT22;9657;45.940;12.840;2023-05-17T11:51:36;18.20;70.60
19050;DHT22;9657;45.940;12.840;2023-05-17T11:54:05;18.20;70.60
19050;DHT22;9657;45.940;12.840;2023-05-17T11:56:35;18.20;70.60
19050;DHT22;9657;45.940;12.840;2023-05-17T11:59:02;18.20;70.60
19050;DHT22;9657;45.940;12.840;2023-05-17T12:01:41;18.20;70.60
19050;DHT22;9657;45.940;12.840;2023-05-17T12:04:09;18.20;70.60
19050;DHT22;9657;45.940;12.840;2023-05-17T12:06:36;18.20;70.60
19050;DHT22;9657;45.940;12.840;2023-05-17T12:09:03;18.20;70.60
19050;DHT22;9657;45.940;12.840;2023-05-17T12:11:36;18.20;70.60
19050;DHT22;9657;45.940;12.840;2023-05-17T12:14:04;18.20;70.60
19050;DHT22;9657;45.940;12.840;2023-05-17T12:16:31;18.20;70.60
19050;DHT22;9657;45.940;12.840;2023-05-17T12:19:00;18.20;70.70
19050;DHT22;9657;45.940;12.840;2023-05-17T12:21:27;18.20;70.70
19050;DHT22;9657;45.940;12.840;2023-05-17T12:23:54;18.20;70.70
19050;DHT22;9657;45.940;12.840;2023-05-17T12:26:22;18.20;70.60
19050;DHT22;9657;45.940;12.840;2023-05-17T12:28:54;18.20;70.60
19050;DHT22;9657;45.940;12.840;2023-05-17T12:31:28;18.20;70.70
19050;DHT22;9657;45.940;12.840;2023-05-17T12:33:57;18.20;70.60
19050;DHT22;9657;45.940;12.840;2023-05-17T12:36:28;18.20;70.70
19050;DHT22;9657;45.940;12.840;2023-05-17T12:38:56;18.20;70.70
19050;DHT22;9657;45.940;12.840;2023-05-17T12:41:24;18.20;70.70
19050;DHT22;9657;45.940;12.840;2023-05-17T12:43:53;18.20;70.80
19050;DHT22;9657;45.940;12.840;2023-05-17T12:46:21;18.20;70.80
19050;DHT22;9657;45.940;12.840;2023-05-17T12:48:50;18.20;70.80
19050;DHT22;9657;45.940;12.840;2023-05-17T12:51:18;18.20;70.80
19050;DHT22;9657;45.940;12.840;2023-05-17T12:53:49;18.20;70.80
19050;DHT22;9657;45.940;12.840;2023-05-17T12:56:17;18.20;70.80
19050;DHT22;9657;45.940;12.840;2023-05-17T12:59:05;18.20;70.80
19050;DHT22;9657;45.940;12.840;2023-05-17T13:01:34;18.20;70.50
19050;DHT22;9657;45.940;12.840;2023-05-17T13:04:01;18.30;70.50
19050;DHT22;9657;45.940;12.840;2023-05-17T13:06:28;18.20;70.40
19050;DHT22;9657;45.940;12.840;2023-05-17T13:08:59;18.20;70.40
19050;DHT22;9657;45.940;12.840;2023-05-17T13:11:26;18.20;70.40
19050;DHT22;9657;45.940;12.840;2023-05-17T13:13:53;18.20;70.30
19050;DHT22;9657;45.940;12.840;2023-05-17T13:16:28;18.30;70.40
19050;DHT22;9657;45.940;12.840;2023-05-17T13:18:55;18.30;70.50
19050;DHT22;9657;45.940;12.840;2023-05-17T13:21:23;18.30;70.50
19050;DHT22;9657;45.940;12.840;2023-05-17T13:23:50;18.30;70.50
19050;DHT22;9657;45.940;12.840;2023-05-17T13:26:18;18.30;70.50
19050;DHT22;9657;45.940;12.840;2023-05-17T13:28:46;18.30;70.60
19050;DHT22;9657;45.940;12.840;2023-05-17T13:31:14;18.30;70.60
19050;DHT22;9657;45.940;12.840;2023-05-17T13:33:42;18.30;70.70
19050;DHT22;9657;45.940;12.840;2023-05-17T13:36:09;18.30;70.70
19050;DHT22;9657;45.940;12.840;2023-05-17T13:38:36;18.30;70.80
19050;DHT22;9657;45.940;12.840;2023-05-17T13:41:03;18.30;70.80
19050;DHT22;9657;45.940;12.840;2023-05-17T13:43:34;18.30;70.80
19050;DHT22;9657;45.940;12.840;2023-05-17T13:46:01;18.30;70.90
19050;DHT22;9657;45.940;12.840;2023-05-17T13:48:28;18.30;70.90
19050;DHT22;9657;45.940;12.840;2023-05-17T13:50:56;18.30;71.00
19050;DHT22;9657;45.940;12.840;2023-05-17T13:53:24;18.30;71.00
19050;DHT22;9657;45.940;12.840;2023-05-17T13:55:51;18.30;71.10
19050;DHT22;9657;45.940;12.840;2023-05-17T13:58:18;18.30;71.10
19050;DHT22;9657;45.940;12.840;2023-05-17T14:00:45;18.30;71.10
19050;DHT22;9657;45.940;12.840;2023-05-17T14:03:12;18.30;71.10
19050;DHT22;9657;45.940;12.840;2023-05-17T14:05:40;18.30;71.10
19050;DHT22;9657;45.940;12.840;2023-05-17T14:08:08;18.30;71.10
19050;DHT22;9657;45.940;12.840;2023-05-17T14:10:35;18.30;71.10
19050;DHT22;9657;45.940;12.840;2023-05-17T14:13:02;18.30;71.10
19050;DHT22;9657;45.940;12.840;2023-05-17T14:15:30;18.30;71.20
19050;DHT22;9657;45.940;12.840;2023-05-17T14:18:02;18.30;71.30
19050;DHT22;9657;45.940;12.840;2023-05-17T14:20:30;18.30;71.30
19050;DHT22;9657;45.940;12.840;2023-05-17T14:22:57;18.30;71.30
19050;DHT22;9657;45.940;12.840;2023-05-17T14:25:25;18.40;71.50
19050;DHT22;9657;45.940;12.840;2023-05-17T14:27:53;18.30;71.40
19050;DHT22;9657;45.940;12.840;2023-05-17T14:30:20;18.30;71.40
19050;DHT22;9657;45.940;12.840;2023-05-17T14:32:47;18.30;71.30
19050;DHT22;9657;45.940;12.840;2023-05-17T14:35:15;18.30;71.40
19050;DHT22;9657;45.940;12.840;2023-05-17T14:37:42;18.30;71.40
19050;DHT22;9657;45.940;12.840;2023-05-17T14:40:10;18.40;71.50
19050;DHT22;9657;45.940;12.840;2023-05-17T14:42:39;18.30;71.40
19050;DHT22;9657;45.940;12.840;2023-05-17T14:45:07;18.30;71.50
19050;DHT22;9657;45.940;12.840;2023-05-17T14:47:34;18.30;71.40
19050;DHT22;9657;45.940;12.840;2023-05-17T14:50:02;18.30;71.50
19050;DHT22;9657;45.940;12.840;2023-05-17T14:52:29;18.30;71.50
19050;DHT22;9657;45.940;12.840;2023-05-17T14:54:56;18.40;71.50
19050;DHT22;9657;45.940;12.840;2023-05-17T14:57:23;18.30;71.50
19050;DHT22;9657;45.940;12.840;2023-05-17T14:59:52;18.30;71.50
19050;DHT22;9657;45.940;12.840;2023-05-17T15:02:19;18.40;71.60
19050;DHT22;9657;45.940;12.840;2023-05-17T15:04:46;18.30;71.50
19050;DHT22;9657;45.940;12.840;2023-05-17T15:07:13;18.30;71.50
19050;DHT22;9657;45.940;12.840;2023-05-17T15:09:41;18.40;71.60
19050;DHT22;9657;45.940;12.840;2023-05-17T15:12:09;18.40;71.60
19050;DHT22;9657;45.940;12.840;2023-05-17T15:14:37;18.30;71.50
19050;DHT22;9657;45.940;12.840;2023-05-17T15:17:06;18.30;71.60
19050;DHT22;9657;45.940;12.840;2023-05-17T15:19:33;18.30;71.50
19050;DHT22;9657;45.940;12.840;2023-05-17T15:22:00;18.40;71.50
19050;DHT22;9657;45.940;12.840;2023-05-17T15:24:27;18.40;71.60
19050;DHT22;9657;45.940;12.840;2023-05-17T15:26:55;18.40;71.60
19050;DHT22;9657;45.940;12.840;2023-05-17T15:29:22;18.40;71.60
19050;DHT22;9657;45.940;12.840;2023-05-17T15:31:49;18.40;71.60
19050;DHT22;9657;45.940;12.840;2023-05-17T15:34:17;18.40;71.60
19050;DHT22;9657;45.940;12.840;2023-05-17T15:36:44;18.30;71.50
19050;DHT22;9657;45.940;12.840;2023-05-17T15:39:11;18.30;71.50